WMT8VE LRCL-LIME
Flight info
| Callsign | WMT8VE |
|---|---|
| Flight time | 1h 32m |
| Altitude | 36000 |
| Route | ELROM1M/25 ELROM DCT BUDOP DCT BOKSI DCT DIMLO DCT VAMET DCT DETSA DCT BAKOR DCT NAXAV DCT RENTA M984 LUSIL T772 EKLIB |
| Aircraft | A320/M-SDE3FGHIRWY/LB1 |
Departure
| Time | 2026-04-30 18:25 |
|---|---|
| Airport | Avram Iancu Cluj International Airport (LRCL) |
Arrival
| Time | 2026-04-30 19:57 |
|---|---|
| Airport | Il Caravaggio International Airport (LIME) |
| Time | Latitude | Longitude | Altitude | Speed | Heading |
|---|---|---|---|---|---|
| 2026-04-30 17:59 | 46.78534 | 23.69434 | 1043 ft | 0 kts | 71° |
| 2026-04-30 18:17 | 46.78533 | 23.69428 | 1043 ft | 3 kts | 71° |
| 2026-04-30 18:17 | 46.78522 | 23.69392 | 1016 ft | 4 kts | 57° |
| 2026-04-30 18:17 | 46.78493 | 23.69363 | 1043 ft | 0 kts | 342° |
| 2026-04-30 18:20 | 46.78496 | 23.69362 | 1043 ft | 1 kts | 342° |
| 2026-04-30 18:20 | 46.78515 | 23.69353 | 1043 ft | 5 kts | 342° |
| 2026-04-30 18:21 | 46.78560 | 23.69331 | 1043 ft | 9 kts | 341° |
| 2026-04-30 18:21 | 46.78629 | 23.69298 | 1043 ft | 12 kts | 342° |
| 2026-04-30 18:21 | 46.78711 | 23.69258 | 1043 ft | 12 kts | 341° |
| 2026-04-30 18:21 | 46.78797 | 23.69217 | 1043 ft | 14 kts | 342° |
| 2026-04-30 18:22 | 46.78898 | 23.69189 | 1043 ft | 15 kts | 24° |
| 2026-04-30 18:22 | 46.78990 | 23.69498 | 1043 ft | 12 kts | 71° |
| 2026-04-30 18:22 | 46.79027 | 23.69584 | 1043 ft | 7 kts | 54° |
| 2026-04-30 18:23 | 46.79020 | 23.69602 | 1043 ft | 2 kts | 231° |
| 2026-04-30 18:23 | 46.79007 | 23.69572 | 1043 ft | 5 kts | 245° |
| 2026-04-30 18:23 | 46.79000 | 23.69536 | 1043 ft | 0 kts | 251° |
| 2026-04-30 18:23 | 46.79000 | 23.69535 | 1043 ft | 1 kts | 251° |
| 2026-04-30 18:24 | 46.78965 | 23.69383 | 1043 ft | 48 kts | 251° |
| 2026-04-30 18:24 | 46.78782 | 23.68574 | 1043 ft | 115 kts | 252° |
| 2026-04-30 18:24 | 46.78482 | 23.67243 | 1152 ft | 151 kts | 250° |
| 2026-04-30 18:25 | 46.78166 | 23.65830 | 1812 ft | 146 kts | 250° |
| 2026-04-30 18:25 | 46.77505 | 23.62884 | 2726 ft | 169 kts | 250° |
| 2026-04-30 18:25 | 46.77122 | 23.61190 | 3111 ft | 182 kts | 252° |
| 2026-04-30 18:26 | 46.76805 | 23.57215 | 3765 ft | 214 kts | 266° |
| 2026-04-30 18:26 | 46.76729 | 23.54936 | 4035 ft | 238 kts | 267° |
| 2026-04-30 18:26 | 46.76652 | 23.52401 | 4478 ft | 261 kts | 268° |
| 2026-04-30 18:27 | 46.76448 | 23.46974 | 6233 ft | 271 kts | 268° |
| 2026-04-30 18:27 | 46.76325 | 23.44221 | 7135 ft | 274 kts | 267° |
| 2026-04-30 18:28 | 46.76006 | 23.38645 | 8871 ft | 279 kts | 267° |
| 2026-04-30 18:28 | 46.75855 | 23.35798 | 9746 ft | 283 kts | 268° |
| 2026-04-30 18:28 | 46.75567 | 23.29885 | 10765 ft | 312 kts | 268° |
| 2026-04-30 18:29 | 46.75411 | 23.26613 | 10953 ft | 335 kts | 268° |
| 2026-04-30 18:29 | 46.74857 | 23.15732 | 12262 ft | 370 kts | 268° |
| 2026-04-30 18:30 | 46.74523 | 23.09448 | 13345 ft | 378 kts | 268° |
| 2026-04-30 18:30 | 46.74060 | 23.00457 | 14730 ft | 387 kts | 270° |
| 2026-04-30 18:31 | 46.73923 | 22.96523 | 15293 ft | 390 kts | 271° |
| 2026-04-30 18:31 | 46.73723 | 22.88564 | 16411 ft | 397 kts | 271° |
| 2026-04-30 18:32 | 46.73518 | 22.80459 | 17540 ft | 404 kts | 271° |
| 2026-04-30 18:32 | 46.73463 | 22.76357 | 18127 ft | 406 kts | 274° |
| 2026-04-30 18:32 | 46.73601 | 22.68079 | 19152 ft | 411 kts | 276° |
| 2026-04-30 18:33 | 46.73723 | 22.63899 | 19633 ft | 414 kts | 276° |
| 2026-04-30 18:33 | 46.73949 | 22.55437 | 20622 ft | 421 kts | 276° |
| 2026-04-30 18:33 | 46.74036 | 22.51154 | 21085 ft | 424 kts | 275° |
| 2026-04-30 18:34 | 46.74111 | 22.46837 | 21525 ft | 427 kts | 275° |
| 2026-04-30 18:34 | 46.74242 | 22.38122 | 22386 ft | 433 kts | 275° |
| 2026-04-30 18:34 | 46.74306 | 22.33716 | 22809 ft | 436 kts | 275° |
| 2026-04-30 18:35 | 46.74369 | 22.29295 | 23225 ft | 438 kts | 275° |
| 2026-04-30 18:35 | 46.74436 | 22.24836 | 23639 ft | 441 kts | 275° |
| 2026-04-30 18:35 | 46.74502 | 22.20360 | 24019 ft | 443 kts | 275° |
| 2026-04-30 18:36 | 46.74631 | 22.11328 | 24726 ft | 447 kts | 275° |
| 2026-04-30 18:36 | 46.74692 | 22.06782 | 25084 ft | 449 kts | 275° |
| 2026-04-30 18:36 | 46.74807 | 21.97649 | 25787 ft | 453 kts | 274° |
| 2026-04-30 18:37 | 46.74865 | 21.93047 | 26139 ft | 455 kts | 274° |
| 2026-04-30 18:37 | 46.74903 | 21.89928 | 26379 ft | 456 kts | 274° |
| 2026-04-30 18:37 | 46.74959 | 21.85368 | 26825 ft | 455 kts | 274° |
| 2026-04-30 18:37 | 46.75012 | 21.80761 | 27353 ft | 453 kts | 274° |
| 2026-04-30 18:38 | 46.75062 | 21.76180 | 27870 ft | 451 kts | 274° |
| 2026-04-30 18:38 | 46.75108 | 21.71606 | 28391 ft | 450 kts | 274° |
| 2026-04-30 18:38 | 46.75153 | 21.67058 | 28913 ft | 448 kts | 274° |
| 2026-04-30 18:38 | 46.75197 | 21.62513 | 29438 ft | 447 kts | 274° |
| 2026-04-30 18:39 | 46.75238 | 21.57981 | 29968 ft | 446 kts | 274° |
| 2026-04-30 18:39 | 46.75276 | 21.53476 | 30475 ft | 444 kts | 274° |
| 2026-04-30 18:39 | 46.75312 | 21.48980 | 30906 ft | 443 kts | 274° |
| 2026-04-30 18:39 | 46.75349 | 21.44486 | 31337 ft | 442 kts | 274° |
| 2026-04-30 18:40 | 46.75388 | 21.40008 | 31760 ft | 442 kts | 274° |
| 2026-04-30 18:40 | 46.75427 | 21.35535 | 32181 ft | 441 kts | 274° |
| 2026-04-30 18:40 | 46.75462 | 21.31067 | 32605 ft | 441 kts | 273° |
| 2026-04-30 18:40 | 46.75492 | 21.26603 | 33026 ft | 440 kts | 273° |
| 2026-04-30 18:41 | 46.75518 | 21.22142 | 33461 ft | 440 kts | 273° |
| 2026-04-30 18:41 | 46.75542 | 21.17686 | 33891 ft | 439 kts | 273° |
| 2026-04-30 18:41 | 46.75565 | 21.13240 | 34318 ft | 439 kts | 273° |
| 2026-04-30 18:41 | 46.75586 | 21.08788 | 34661 ft | 438 kts | 273° |
| 2026-04-30 18:42 | 46.75606 | 21.04344 | 34978 ft | 439 kts | 273° |
| 2026-04-30 18:42 | 46.75645 | 20.95448 | 35581 ft | 439 kts | 273° |
| 2026-04-30 18:42 | 46.75660 | 20.91000 | 35876 ft | 439 kts | 273° |
| 2026-04-30 18:45 | 46.75712 | 20.45324 | 36332 ft | 456 kts | 272° |
| 2026-04-30 18:45 | 46.75706 | 20.40694 | 36329 ft | 456 kts | 272° |
| 2026-04-30 18:46 | 46.75692 | 20.31435 | 36327 ft | 457 kts | 272° |
| 2026-04-30 18:46 | 46.75671 | 20.22164 | 36327 ft | 457 kts | 272° |
| 2026-04-30 18:47 | 46.75646 | 20.12948 | 36343 ft | 458 kts | 272° |
| 2026-04-30 18:47 | 46.75614 | 20.03651 | 36349 ft | 458 kts | 272° |
| 2026-04-30 18:48 | 46.75577 | 19.94379 | 36348 ft | 458 kts | 272° |
| 2026-04-30 18:48 | 46.75521 | 19.85038 | 36349 ft | 458 kts | 272° |
| 2026-04-30 18:49 | 46.75451 | 19.75732 | 36351 ft | 459 kts | 272° |
| 2026-04-30 18:49 | 46.75379 | 19.66461 | 36349 ft | 459 kts | 272° |
| 2026-04-30 18:50 | 46.75313 | 19.57188 | 36345 ft | 459 kts | 272° |
| 2026-04-30 18:50 | 46.75240 | 19.47834 | 36341 ft | 459 kts | 272° |
| 2026-04-30 18:51 | 46.75151 | 19.38544 | 36338 ft | 459 kts | 272° |
| 2026-04-30 18:51 | 46.75053 | 19.29236 | 36334 ft | 460 kts | 272° |
| 2026-04-30 18:52 | 46.74949 | 19.19892 | 36326 ft | 460 kts | 272° |
| 2026-04-30 18:52 | 46.74835 | 19.10550 | 36315 ft | 462 kts | 272° |
| 2026-04-30 18:53 | 46.74717 | 19.01158 | 36316 ft | 464 kts | 272° |
| 2026-04-30 18:53 | 46.74583 | 18.91743 | 36317 ft | 465 kts | 271° |
| 2026-04-30 18:54 | 46.74444 | 18.82307 | 36320 ft | 466 kts | 271° |
| 2026-04-30 18:54 | 46.74304 | 18.72864 | 36327 ft | 466 kts | 271° |
| 2026-04-30 18:55 | 46.74154 | 18.63402 | 36332 ft | 467 kts | 271° |
| 2026-04-30 18:55 | 46.73912 | 18.49208 | 36343 ft | 467 kts | 271° |
| 2026-04-30 18:56 | 46.73648 | 18.34992 | 36343 ft | 468 kts | 271° |
| 2026-04-30 18:57 | 46.73366 | 18.20824 | 36347 ft | 468 kts | 271° |
| 2026-04-30 18:57 | 46.73163 | 18.11336 | 36352 ft | 469 kts | 271° |
| 2026-04-30 18:58 | 46.72855 | 17.97087 | 36356 ft | 469 kts | 271° |
| 2026-04-30 18:59 | 46.72527 | 17.82833 | 36359 ft | 469 kts | 271° |
| 2026-04-30 19:00 | 46.72064 | 17.63789 | 36369 ft | 470 kts | 271° |
| 2026-04-30 19:01 | 46.71574 | 17.44752 | 36380 ft | 470 kts | 271° |
| 2026-04-30 19:02 | 46.71181 | 17.30460 | 36381 ft | 470 kts | 271° |
| 2026-04-30 19:03 | 46.70623 | 17.11398 | 36378 ft | 471 kts | 271° |
| 2026-04-30 19:04 | 46.70037 | 16.92399 | 36376 ft | 471 kts | 271° |
| 2026-04-30 19:05 | 46.69427 | 16.73303 | 36384 ft | 472 kts | 270° |
| 2026-04-30 19:06 | 46.68774 | 16.54215 | 36386 ft | 472 kts | 270° |
| 2026-04-30 19:06 | 46.68551 | 16.39917 | 36385 ft | 467 kts | 280° |
| 2026-04-30 19:07 | 46.69765 | 16.25847 | 36377 ft | 467 kts | 281° |
| 2026-04-30 19:08 | 46.71327 | 16.07025 | 36389 ft | 468 kts | 281° |
| 2026-04-30 19:09 | 46.72501 | 15.92879 | 36377 ft | 469 kts | 281° |
| 2026-04-30 19:09 | 46.73275 | 15.83415 | 36383 ft | 470 kts | 281° |
| 2026-04-30 19:10 | 46.74781 | 15.64477 | 36394 ft | 470 kts | 280° |
| 2026-04-30 19:11 | 46.75892 | 15.50247 | 36388 ft | 471 kts | 280° |
| 2026-04-30 19:12 | 46.76629 | 15.40763 | 36384 ft | 471 kts | 280° |
| 2026-04-30 19:12 | 46.77350 | 15.31270 | 36381 ft | 471 kts | 279° |
| 2026-04-30 19:13 | 46.77891 | 15.12112 | 36378 ft | 474 kts | 275° |
| 2026-04-30 19:14 | 46.77989 | 15.02484 | 36373 ft | 474 kts | 275° |
| 2026-04-30 19:14 | 46.78160 | 14.92876 | 36373 ft | 474 kts | 276° |
| 2026-04-30 19:15 | 46.78363 | 14.83237 | 36371 ft | 475 kts | 276° |
| 2026-04-30 19:15 | 46.78635 | 14.68849 | 36365 ft | 475 kts | 276° |
| 2026-04-30 19:16 | 46.78798 | 14.59145 | 36359 ft | 476 kts | 276° |
| 2026-04-30 19:17 | 46.79021 | 14.44712 | 36357 ft | 476 kts | 276° |
| 2026-04-30 19:17 | 46.79227 | 14.30204 | 36357 ft | 476 kts | 276° |
| 2026-04-30 19:18 | 46.78465 | 14.15713 | 36355 ft | 483 kts | 263° |
| 2026-04-30 19:19 | 46.77217 | 14.06073 | 36349 ft | 483 kts | 263° |
| 2026-04-30 19:19 | 46.75302 | 13.91644 | 36349 ft | 483 kts | 263° |
| 2026-04-30 19:20 | 46.74242 | 13.83638 | 36348 ft | 483 kts | 263° |
| 2026-04-30 19:21 | 46.72106 | 13.67654 | 36339 ft | 483 kts | 263° |
| 2026-04-30 19:22 | 46.69723 | 13.50001 | 36329 ft | 483 kts | 263° |
| 2026-04-30 19:23 | 46.65768 | 13.21303 | 36318 ft | 483 kts | 263° |
| 2026-04-30 19:24 | 46.63769 | 13.06931 | 36318 ft | 483 kts | 263° |
| 2026-04-30 19:25 | 46.60390 | 12.83009 | 36307 ft | 482 kts | 263° |
| 2026-04-30 19:26 | 46.57677 | 12.63929 | 36285 ft | 482 kts | 263° |
| 2026-04-30 19:26 | 46.56988 | 12.59152 | 36080 ft | 482 kts | 263° |
| 2026-04-30 19:27 | 46.55594 | 12.49618 | 35480 ft | 483 kts | 263° |
| 2026-04-30 19:27 | 46.54193 | 12.40049 | 34888 ft | 485 kts | 263° |
| 2026-04-30 19:28 | 46.53488 | 12.35242 | 34609 ft | 487 kts | 263° |
| 2026-04-30 19:28 | 46.52073 | 12.25611 | 34264 ft | 488 kts | 263° |
| 2026-04-30 19:29 | 46.50645 | 12.15958 | 34282 ft | 488 kts | 263° |
| 2026-04-30 19:30 | 46.47748 | 11.96667 | 34272 ft | 489 kts | 263° |
| 2026-04-30 19:30 | 46.46294 | 11.87029 | 34003 ft | 489 kts | 263° |
| 2026-04-30 19:31 | 46.44831 | 11.77382 | 33499 ft | 490 kts | 262° |
| 2026-04-30 19:31 | 46.44091 | 11.72548 | 33240 ft | 490 kts | 262° |
| 2026-04-30 19:31 | 46.42606 | 11.62886 | 32736 ft | 492 kts | 262° |
| 2026-04-30 19:32 | 46.41869 | 11.58102 | 32498 ft | 493 kts | 262° |
| 2026-04-30 19:32 | 46.41109 | 11.53184 | 32119 ft | 494 kts | 262° |
| 2026-04-30 19:32 | 46.40355 | 11.48334 | 31675 ft | 494 kts | 262° |
| 2026-04-30 19:32 | 46.39600 | 11.43473 | 31261 ft | 496 kts | 262° |
| 2026-04-30 19:33 | 46.38843 | 11.38595 | 30857 ft | 497 kts | 261° |
| 2026-04-30 19:33 | 46.38088 | 11.33735 | 30463 ft | 498 kts | 261° |
| 2026-04-30 19:33 | 46.37331 | 11.28874 | 30022 ft | 499 kts | 261° |
| 2026-04-30 19:33 | 46.36562 | 11.23962 | 29613 ft | 501 kts | 261° |
| 2026-04-30 19:34 | 46.35786 | 11.19036 | 29156 ft | 501 kts | 261° |
| 2026-04-30 19:34 | 46.35004 | 11.14114 | 28713 ft | 502 kts | 261° |
| 2026-04-30 19:34 | 46.33431 | 11.04249 | 27835 ft | 504 kts | 261° |
| 2026-04-30 19:35 | 46.32638 | 10.99298 | 27401 ft | 505 kts | 261° |
| 2026-04-30 19:35 | 46.31845 | 10.94353 | 26990 ft | 505 kts | 261° |
| 2026-04-30 19:35 | 46.31041 | 10.89410 | 26566 ft | 506 kts | 259° |
| 2026-04-30 19:35 | 46.29909 | 10.84570 | 26158 ft | 511 kts | 249° |
| 2026-04-30 19:36 | 46.28339 | 10.79935 | 25760 ft | 513 kts | 246° |
| 2026-04-30 19:36 | 46.26740 | 10.75343 | 25358 ft | 510 kts | 246° |
| 2026-04-30 19:36 | 46.23549 | 10.66199 | 24570 ft | 510 kts | 246° |
| 2026-04-30 19:37 | 46.21949 | 10.61628 | 24188 ft | 509 kts | 246° |
| 2026-04-30 19:37 | 46.20352 | 10.57077 | 23592 ft | 506 kts | 246° |
| 2026-04-30 19:37 | 46.18773 | 10.52583 | 22926 ft | 496 kts | 246° |
| 2026-04-30 19:37 | 46.17228 | 10.48195 | 22242 ft | 486 kts | 246° |
| 2026-04-30 19:38 | 46.15689 | 10.43912 | 21587 ft | 478 kts | 242° |
| 2026-04-30 19:38 | 46.13715 | 10.40104 | 20940 ft | 472 kts | 227° |
| 2026-04-30 19:38 | 46.11223 | 10.37139 | 20331 ft | 466 kts | 216° |
| 2026-04-30 19:38 | 46.08568 | 10.34471 | 19717 ft | 458 kts | 216° |
| 2026-04-30 19:39 | 46.05997 | 10.31903 | 19123 ft | 452 kts | 216° |
| 2026-04-30 19:39 | 46.03397 | 10.29309 | 18522 ft | 447 kts | 216° |
| 2026-04-30 19:39 | 46.00883 | 10.26800 | 17848 ft | 443 kts | 216° |
| 2026-04-30 19:39 | 45.98356 | 10.24281 | 17196 ft | 437 kts | 216° |
| 2026-04-30 19:40 | 45.95920 | 10.21853 | 16595 ft | 418 kts | 216° |
| 2026-04-30 19:40 | 45.93547 | 10.19487 | 16106 ft | 413 kts | 216° |
| 2026-04-30 19:40 | 45.91197 | 10.17151 | 15604 ft | 407 kts | 215° |
| 2026-04-30 19:40 | 45.88888 | 10.14860 | 15119 ft | 402 kts | 215° |
| 2026-04-30 19:41 | 45.86544 | 10.12734 | 14633 ft | 396 kts | 205° |
| 2026-04-30 19:41 | 45.83952 | 10.11490 | 14154 ft | 390 kts | 193° |
| 2026-04-30 19:41 | 45.81314 | 10.10746 | 13628 ft | 384 kts | 185° |
| 2026-04-30 19:41 | 45.78678 | 10.10361 | 13178 ft | 379 kts | 185° |
| 2026-04-30 19:42 | 45.76066 | 10.09990 | 12879 ft | 376 kts | 185° |
| 2026-04-30 19:42 | 45.73469 | 10.09626 | 12621 ft | 374 kts | 185° |
| 2026-04-30 19:42 | 45.70883 | 10.09264 | 12365 ft | 372 kts | 185° |
| 2026-04-30 19:42 | 45.68312 | 10.08903 | 12110 ft | 370 kts | 185° |
| 2026-04-30 19:43 | 45.65753 | 10.08541 | 11812 ft | 368 kts | 185° |
| 2026-04-30 19:43 | 45.63215 | 10.08182 | 11512 ft | 366 kts | 185° |
| 2026-04-30 19:43 | 45.60695 | 10.07829 | 11217 ft | 363 kts | 185° |
| 2026-04-30 19:44 | 45.55799 | 10.07143 | 10630 ft | 344 kts | 185° |
| 2026-04-30 19:44 | 45.53449 | 10.06814 | 10354 ft | 336 kts | 185° |
| 2026-04-30 19:44 | 45.51145 | 10.06489 | 10048 ft | 329 kts | 185° |
| 2026-04-30 19:44 | 45.48927 | 10.06175 | 9736 ft | 312 kts | 185° |
| 2026-04-30 19:45 | 45.46823 | 10.06073 | 9422 ft | 295 kts | 172° |
| 2026-04-30 19:45 | 45.44896 | 10.06796 | 9110 ft | 281 kts | 160° |
| 2026-04-30 19:45 | 45.43066 | 10.07708 | 8804 ft | 277 kts | 160° |
| 2026-04-30 19:45 | 45.41251 | 10.08617 | 8462 ft | 276 kts | 158° |
| 2026-04-30 19:46 | 45.39626 | 10.09936 | 8067 ft | 266 kts | 136° |
| 2026-04-30 19:46 | 45.38530 | 10.11989 | 7658 ft | 257 kts | 113° |
| 2026-04-30 19:46 | 45.38083 | 10.14391 | 7266 ft | 249 kts | 91° |
| 2026-04-30 19:46 | 45.38279 | 10.16803 | 6882 ft | 247 kts | 71° |
| 2026-04-30 19:47 | 45.39066 | 10.18949 | 6519 ft | 244 kts | 51° |
| 2026-04-30 19:47 | 45.39837 | 10.20089 | 6310 ft | 240 kts | 37° |
| 2026-04-30 19:47 | 45.41862 | 10.21260 | 6020 ft | 234 kts | 4° |
| 2026-04-30 19:47 | 45.43424 | 10.20942 | 6006 ft | 231 kts | 338° |
| 2026-04-30 19:48 | 45.44757 | 10.19681 | 6011 ft | 232 kts | 313° |
| 2026-04-30 19:48 | 45.45578 | 10.17710 | 6007 ft | 233 kts | 288° |
| 2026-04-30 19:48 | 45.46030 | 10.15484 | 6009 ft | 234 kts | 286° |
| 2026-04-30 19:48 | 45.46597 | 10.13326 | 5992 ft | 231 kts | 303° |
| 2026-04-30 19:49 | 45.47676 | 10.11730 | 5834 ft | 221 kts | 329° |
| 2026-04-30 19:49 | 45.50255 | 10.09617 | 5524 ft | 207 kts | 331° |
| 2026-04-30 19:49 | 45.51484 | 10.08613 | 5369 ft | 201 kts | 331° |
| 2026-04-30 19:50 | 45.52693 | 10.07625 | 5220 ft | 200 kts | 331° |
| 2026-04-30 19:50 | 45.53897 | 10.06638 | 5052 ft | 200 kts | 331° |
| 2026-04-30 19:50 | 45.55107 | 10.05647 | 4869 ft | 200 kts | 331° |
| 2026-04-30 19:50 | 45.56296 | 10.04673 | 4681 ft | 200 kts | 331° |
| 2026-04-30 19:51 | 45.57502 | 10.03682 | 4507 ft | 200 kts | 330° |
| 2026-04-30 19:51 | 45.58708 | 10.02690 | 4336 ft | 200 kts | 331° |
| 2026-04-30 19:51 | 45.59912 | 10.01701 | 4152 ft | 199 kts | 330° |
| 2026-04-30 19:51 | 45.60958 | 10.00424 | 3981 ft | 199 kts | 306° |
| 2026-04-30 19:52 | 45.61558 | 9.98662 | 3863 ft | 199 kts | 284° |
| 2026-04-30 19:52 | 45.61904 | 9.96766 | 3759 ft | 194 kts | 284° |
| 2026-04-30 19:52 | 45.62249 | 9.94922 | 3658 ft | 190 kts | 284° |
| 2026-04-30 19:52 | 45.62591 | 9.93106 | 3591 ft | 189 kts | 284° |
| 2026-04-30 19:53 | 45.62930 | 9.91300 | 3471 ft | 186 kts | 284° |
| 2026-04-30 19:53 | 45.63262 | 9.89536 | 3229 ft | 182 kts | 284° |
| 2026-04-30 19:53 | 45.63584 | 9.87820 | 2996 ft | 173 kts | 284° |
| 2026-04-30 19:53 | 45.63886 | 9.86215 | 2763 ft | 162 kts | 284° |
| 2026-04-30 19:54 | 45.64167 | 9.84712 | 2556 ft | 153 kts | 284° |
| 2026-04-30 19:54 | 45.64437 | 9.83273 | 2357 ft | 149 kts | 284° |
| 2026-04-30 19:54 | 45.64703 | 9.81850 | 2157 ft | 148 kts | 284° |
| 2026-04-30 19:54 | 45.64976 | 9.80431 | 1984 ft | 147 kts | 284° |
| 2026-04-30 19:55 | 45.65244 | 9.79018 | 1761 ft | 146 kts | 283° |
| 2026-04-30 19:55 | 45.65494 | 9.77627 | 1559 ft | 143 kts | 283° |
| 2026-04-30 19:55 | 45.65744 | 9.76264 | 1391 ft | 142 kts | 284° |
| 2026-04-30 19:55 | 45.66002 | 9.74901 | 1155 ft | 141 kts | 283° |
| 2026-04-30 19:56 | 45.66252 | 9.73551 | 987 ft | 141 kts | 283° |
| 2026-04-30 19:56 | 45.66507 | 9.72204 | 820 ft | 139 kts | 283° |
| 2026-04-30 19:56 | 45.66733 | 9.70958 | 774 ft | 111 kts | 285° |
| 2026-04-30 19:56 | 45.66889 | 9.70131 | 785 ft | 61 kts | 285° |
| 2026-04-30 19:57 | 45.66979 | 9.69651 | 786 ft | 41 kts | 285° |
| 2026-04-30 19:57 | 45.67040 | 9.69327 | 787 ft | 27 kts | 285° |
| 2026-04-30 19:57 | 45.67079 | 9.69132 | 789 ft | 9 kts | 277° |
| 2026-04-30 19:57 | 45.67068 | 9.69073 | 790 ft | 6 kts | 246° |
| 2026-04-30 19:58 | 45.67038 | 9.69018 | 791 ft | 8 kts | 219° |
| 2026-04-30 19:58 | 45.66984 | 9.68991 | 791 ft | 10 kts | 193° |
| 2026-04-30 19:58 | 45.66918 | 9.69012 | 791 ft | 12 kts | 127° |
| 2026-04-30 19:58 | 45.66902 | 9.69144 | 790 ft | 15 kts | 98° |
| 2026-04-30 19:59 | 45.66875 | 9.69306 | 789 ft | 18 kts | 105° |
| 2026-04-30 19:59 | 45.66839 | 9.69492 | 787 ft | 21 kts | 105° |
| 2026-04-30 19:59 | 45.66760 | 9.69912 | 784 ft | 18 kts | 107° |
| 2026-04-30 20:00 | 45.66726 | 9.70103 | 783 ft | 20 kts | 104° |
| 2026-04-30 20:00 | 45.66696 | 9.70265 | 781 ft | 17 kts | 103° |
| 2026-04-30 20:00 | 45.66670 | 9.70399 | 780 ft | 14 kts | 109° |
| 2026-04-30 20:00 | 45.66647 | 9.70512 | 779 ft | 12 kts | 105° |
| 2026-04-30 20:01 | 45.66609 | 9.70603 | 779 ft | 3 kts | 193° |
| 2026-04-30 20:01 | 45.66590 | 9.70596 | 779 ft | 1 kts | 195° |
| 2026-04-30 20:01 | 45.66578 | 9.70591 | 779 ft | 3 kts | 194° |
| 2026-04-30 20:02 | 45.66559 | 9.70584 | 779 ft | 0 kts | 194° |